sensor_id;sensor_type;location;lat;lon;timestamp;P1;durP1;ratioP1;P2;durP2;ratioP2
15285;SDS011;7744;52.172;10.668;2023-08-01T00:01:27;1.58;;;0.93;;
15285;SDS011;7744;52.172;10.668;2023-08-01T00:03:52;1.35;;;1.20;;
15285;SDS011;7744;52.172;10.668;2023-08-01T00:06:18;0.90;;;0.80;;
15285;SDS011;7744;52.172;10.668;2023-08-01T00:08:44;1.27;;;1.17;;
15285;SDS011;7744;52.172;10.668;2023-08-01T00:11:10;1.35;;;0.98;;
15285;SDS011;7744;52.172;10.668;2023-08-01T00:13:36;1.20;;;1.08;;
15285;SDS011;7744;52.172;10.668;2023-08-01T00:16:02;1.20;;;1.00;;
15285;SDS011;7744;52.172;10.668;2023-08-01T00:18:28;3.08;;;1.30;;
15285;SDS011;7744;52.172;10.668;2023-08-01T00:20:53;1.05;;;0.80;;
15285;SDS011;7744;52.172;10.668;2023-08-01T00:23:19;2.47;;;1.08;;
15285;SDS011;7744;52.172;10.668;2023-08-01T00:25:45;1.20;;;1.10;;
15285;SDS011;7744;52.172;10.668;2023-08-01T00:28:16;0.90;;;0.90;;
15285;SDS011;7744;52.172;10.668;2023-08-01T00:30:42;1.20;;;1.10;;
15285;SDS011;7744;52.172;10.668;2023-08-01T00:33:08;1.23;;;1.10;;
15285;SDS011;7744;52.172;10.668;2023-08-01T00:35:34;2.15;;;1.40;;
15285;SDS011;7744;52.172;10.668;2023-08-01T00:37:59;1.30;;;1.17;;
15285;SDS011;7744;52.172;10.668;2023-08-01T00:40:29;1.20;;;1.00;;
15285;SDS011;7744;52.172;10.668;2023-08-01T00:42:56;3.13;;;1.20;;
15285;SDS011;7744;52.172;10.668;2023-08-01T00:45:22;0.93;;;0.93;;
15285;SDS011;7744;52.172;10.668;2023-08-01T00:47:50;1.90;;;1.20;;
15285;SDS011;7744;52.172;10.668;2023-08-01T00:50:16;2.78;;;1.25;;
15285;SDS011;7744;52.172;10.668;2023-08-01T00:52:45;1.45;;;1.10;;
15285;SDS011;7744;52.172;10.668;2023-08-01T00:55:12;1.92;;;1.20;;
15285;SDS011;7744;52.172;10.668;2023-08-01T00:57:38;1.30;;;1.20;;
15285;SDS011;7744;52.172;10.668;2023-08-01T01:00:04;3.55;;;1.17;;
15285;SDS011;7744;52.172;10.668;2023-08-01T01:02:30;1.52;;;1.30;;
15285;SDS011;7744;52.172;10.668;2023-08-01T01:04:56;1.90;;;1.17;;
15285;SDS011;7744;52.172;10.668;2023-08-01T01:07:22;0.95;;;0.93;;
15285;SDS011;7744;52.172;10.668;2023-08-01T01:09:49;1.33;;;1.10;;
15285;SDS011;7744;52.172;10.668;2023-08-01T01:12:15;1.42;;;1.00;;
15285;SDS011;7744;52.172;10.668;2023-08-01T01:14:41;1.15;;;1.05;;
15285;SDS011;7744;52.172;10.668;2023-08-01T01:17:06;1.40;;;1.05;;
15285;SDS011;7744;52.172;10.668;2023-08-01T01:19:32;1.42;;;1.27;;
15285;SDS011;7744;52.172;10.668;2023-08-01T01:21:58;1.45;;;1.20;;
15285;SDS011;7744;52.172;10.668;2023-08-01T01:24:24;1.98;;;1.00;;
15285;SDS011;7744;52.172;10.668;2023-08-01T01:26:50;1.60;;;1.17;;
15285;SDS011;7744;52.172;10.668;2023-08-01T01:29:18;2.67;;;1.40;;
15285;SDS011;7744;52.172;10.668;2023-08-01T01:31:44;2.00;;;1.17;;
15285;SDS011;7744;52.172;10.668;2023-08-01T01:34:10;1.33;;;1.20;;
15285;SDS011;7744;52.172;10.668;2023-08-01T01:36:37;2.10;;;1.20;;
15285;SDS011;7744;52.172;10.668;2023-08-01T01:39:02;2.35;;;1.20;;
15285;SDS011;7744;52.172;10.668;2023-08-01T01:41:28;1.92;;;1.30;;
15285;SDS011;7744;52.172;10.668;2023-08-01T01:43:54;2.63;;;1.20;;
15285;SDS011;7744;52.172;10.668;2023-08-01T01:46:19;2.08;;;1.38;;
15285;SDS011;7744;52.172;10.668;2023-08-01T01:48:45;1.90;;;1.42;;
15285;SDS011;7744;52.172;10.668;2023-08-01T01:51:10;2.22;;;1.45;;
15285;SDS011;7744;52.172;10.668;2023-08-01T01:53:36;1.60;;;1.20;;
15285;SDS011;7744;52.172;10.668;2023-08-01T01:56:01;1.30;;;1.20;;
15285;SDS011;7744;52.172;10.668;2023-08-01T01:58:27;1.13;;;1.02;;
15285;SDS011;7744;52.172;10.668;2023-08-01T02:00:53;1.25;;;0.90;;
15285;SDS011;7744;52.172;10.668;2023-08-01T02:03:18;2.35;;;1.10;;
15285;SDS011;7744;52.172;10.668;2023-08-01T02:05:44;1.13;;;1.00;;
15285;SDS011;7744;52.172;10.668;2023-08-01T02:08:10;2.03;;;1.20;;
15285;SDS011;7744;52.172;10.668;2023-08-01T02:10:35;2.58;;;1.42;;
15285;SDS011;7744;52.172;10.668;2023-08-01T02:13:01;1.65;;;1.30;;
15285;SDS011;7744;52.172;10.668;2023-08-01T02:15:27;2.15;;;1.35;;
15285;SDS011;7744;52.172;10.668;2023-08-01T02:17:52;1.65;;;1.27;;
15285;SDS011;7744;52.172;10.668;2023-08-01T02:20:18;1.35;;;1.13;;
15285;SDS011;7744;52.172;10.668;2023-08-01T02:22:44;3.05;;;1.15;;
15285;SDS011;7744;52.172;10.668;2023-08-01T02:25:09;1.30;;;1.00;;
15285;SDS011;7744;52.172;10.668;2023-08-01T02:27:36;1.08;;;0.90;;
15285;SDS011;7744;52.172;10.668;2023-08-01T02:30:02;1.70;;;0.90;;
15285;SDS011;7744;52.172;10.668;2023-08-01T02:32:27;1.35;;;1.10;;
15285;SDS011;7744;52.172;10.668;2023-08-01T02:34:53;2.00;;;1.40;;
15285;SDS011;7744;52.172;10.668;2023-08-01T02:37:19;2.33;;;1.30;;
15285;SDS011;7744;52.172;10.668;2023-08-01T02:39:44;1.23;;;1.00;;
15285;SDS011;7744;52.172;10.668;2023-08-01T02:42:10;1.33;;;1.23;;
15285;SDS011;7744;52.172;10.668;2023-08-01T02:44:35;3.33;;;1.30;;
15285;SDS011;7744;52.172;10.668;2023-08-01T02:47:01;2.15;;;1.40;;
15285;SDS011;7744;52.172;10.668;2023-08-01T02:49:27;1.92;;;1.17;;
15285;SDS011;7744;52.172;10.668;2023-08-01T02:51:52;2.83;;;1.63;;
15285;SDS011;7744;52.172;10.668;2023-08-01T02:54:18;1.30;;;1.20;;
15285;SDS011;7744;52.172;10.668;2023-08-01T02:56:44;1.48;;;1.20;;
15285;SDS011;7744;52.172;10.668;2023-08-01T02:59:10;2.53;;;1.17;;
15285;SDS011;7744;52.172;10.668;2023-08-01T03:01:36;3.17;;;1.50;;
15285;SDS011;7744;52.172;10.668;2023-08-01T03:04:03;2.50;;;1.27;;
15285;SDS011;7744;52.172;10.668;2023-08-01T03:06:29;1.98;;;1.60;;
15285;SDS011;7744;52.172;10.668;2023-08-01T03:08:55;2.05;;;1.50;;
15285;SDS011;7744;52.172;10.668;2023-08-01T03:11:20;1.75;;;1.40;;
15285;SDS011;7744;52.172;10.668;2023-08-01T03:13:46;3.15;;;1.33;;
15285;SDS011;7744;52.172;10.668;2023-08-01T03:16:12;2.38;;;1.50;;
15285;SDS011;7744;52.172;10.668;2023-08-01T03:18:37;2.83;;;1.40;;
15285;SDS011;7744;52.172;10.668;2023-08-01T03:21:03;2.85;;;1.55;;
15285;SDS011;7744;52.172;10.668;2023-08-01T03:23:29;1.65;;;1.35;;
15285;SDS011;7744;52.172;10.668;2023-08-01T03:25:55;3.78;;;1.30;;
15285;SDS011;7744;52.172;10.668;2023-08-01T03:28:21;2.53;;;1.30;;
15285;SDS011;7744;52.172;10.668;2023-08-01T03:30:46;2.20;;;1.52;;
15285;SDS011;7744;52.172;10.668;2023-08-01T03:33:15;2.72;;;1.40;;
15285;SDS011;7744;52.172;10.668;2023-08-01T03:35:41;1.77;;;1.30;;
15285;SDS011;7744;52.172;10.668;2023-08-01T03:38:07;2.05;;;1.25;;
15285;SDS011;7744;52.172;10.668;2023-08-01T03:40:32;1.98;;;1.17;;
15285;SDS011;7744;52.172;10.668;2023-08-01T03:42:58;3.13;;;1.20;;
15285;SDS011;7744;52.172;10.668;2023-08-01T03:45:24;1.50;;;1.20;;
15285;SDS011;7744;52.172;10.668;2023-08-01T03:47:49;3.70;;;1.00;;
15285;SDS011;7744;52.172;10.668;2023-08-01T03:50:16;1.60;;;1.42;;
15285;SDS011;7744;52.172;10.668;2023-08-01T03:52:42;2.95;;;1.45;;
15285;SDS011;7744;52.172;10.668;2023-08-01T03:55:07;1.85;;;1.10;;
15285;SDS011;7744;52.172;10.668;2023-08-01T03:57:33;2.13;;;1.38;;
15285;SDS011;7744;52.172;10.668;2023-08-01T03:59:59;1.60;;;1.27;;
15285;SDS011;7744;52.172;10.668;2023-08-01T04:02:25;1.67;;;1.38;;
15285;SDS011;7744;52.172;10.668;2023-08-01T04:04:51;2.00;;;1.30;;
15285;SDS011;7744;52.172;10.668;2023-08-01T04:07:16;1.58;;;1.15;;
15285;SDS011;7744;52.172;10.668;2023-08-01T04:09:42;2.15;;;1.30;;
15285;SDS011;7744;52.172;10.668;2023-08-01T04:12:08;1.40;;;0.95;;
15285;SDS011;7744;52.172;10.668;2023-08-01T04:14:34;1.67;;;1.10;;
15285;SDS011;7744;52.172;10.668;2023-08-01T04:16:59;1.92;;;1.38;;
15285;SDS011;7744;52.172;10.668;2023-08-01T04:19:25;3.15;;;1.13;;
15285;SDS011;7744;52.172;10.668;2023-08-01T04:21:51;1.92;;;1.00;;
15285;SDS011;7744;52.172;10.668;2023-08-01T04:24:16;1.92;;;1.17;;
15285;SDS011;7744;52.172;10.668;2023-08-01T04:26:42;1.95;;;1.02;;
15285;SDS011;7744;52.172;10.668;2023-08-01T04:29:07;2.45;;;1.10;;
15285;SDS011;7744;52.172;10.668;2023-08-01T04:31:33;1.48;;;1.23;;
15285;SDS011;7744;52.172;10.668;2023-08-01T04:33:59;1.20;;;1.05;;
15285;SDS011;7744;52.172;10.668;2023-08-01T04:36:24;2.90;;;1.15;;
15285;SDS011;7744;52.172;10.668;2023-08-01T04:38:50;3.03;;;1.17;;
15285;SDS011;7744;52.172;10.668;2023-08-01T04:41:16;1.15;;;0.98;;
15285;SDS011;7744;52.172;10.668;2023-08-01T04:43:41;2.90;;;1.10;;
15285;SDS011;7744;52.172;10.668;2023-08-01T04:46:07;3.15;;;1.20;;
15285;SDS011;7744;52.172;10.668;2023-08-01T04:48:32;2.78;;;0.93;;
15285;SDS011;7744;52.172;10.668;2023-08-01T04:50:58;2.95;;;1.13;;
15285;SDS011;7744;52.172;10.668;2023-08-01T04:53:23;1.85;;;1.30;;
15285;SDS011;7744;52.172;10.668;2023-08-01T04:55:50;1.48;;;1.13;;
15285;SDS011;7744;52.172;10.668;2023-08-01T04:58:15;2.05;;;0.95;;
15285;SDS011;7744;52.172;10.668;2023-08-01T05:00:42;2.17;;;0.90;;
15285;SDS011;7744;52.172;10.668;2023-08-01T05:03:07;3.65;;;1.20;;
15285;SDS011;7744;52.172;10.668;2023-08-01T05:05:33;2.45;;;1.10;;
15285;SDS011;7744;52.172;10.668;2023-08-01T05:07:59;1.83;;;0.80;;
15285;SDS011;7744;52.172;10.668;2023-08-01T05:10:24;1.70;;;0.88;;
15285;SDS011;7744;52.172;10.668;2023-08-01T05:12:50;1.73;;;1.10;;
15285;SDS011;7744;52.172;10.668;2023-08-01T05:15:16;1.05;;;0.82;;
15285;SDS011;7744;52.172;10.668;2023-08-01T05:17:41;1.10;;;1.00;;
15285;SDS011;7744;52.172;10.668;2023-08-01T05:20:07;1.20;;;1.00;;
15285;SDS011;7744;52.172;10.668;2023-08-01T05:22:33;1.35;;;1.05;;
15285;SDS011;7744;52.172;10.668;2023-08-01T05:24:59;1.88;;;1.20;;
15285;SDS011;7744;52.172;10.668;2023-08-01T05:27:26;1.45;;;0.85;;
15285;SDS011;7744;52.172;10.668;2023-08-01T05:29:52;2.85;;;1.17;;
15285;SDS011;7744;52.172;10.668;2023-08-01T05:32:18;2.42;;;1.00;;
15285;SDS011;7744;52.172;10.668;2023-08-01T05:34:44;2.50;;;1.10;;
15285;SDS011;7744;52.172;10.668;2023-08-01T05:37:09;2.40;;;1.00;;
15285;SDS011;7744;52.172;10.668;2023-08-01T05:39:35;0.82;;;0.82;;
15285;SDS011;7744;52.172;10.668;2023-08-01T05:42:01;1.95;;;0.88;;
15285;SDS011;7744;52.172;10.668;2023-08-01T05:44:26;1.38;;;0.93;;
15285;SDS011;7744;52.172;10.668;2023-08-01T05:46:59;1.48;;;1.10;;
15285;SDS011;7744;52.172;10.668;2023-08-01T05:49:26;1.10;;;1.00;;
15285;SDS011;7744;52.172;10.668;2023-08-01T05:52:00;1.40;;;0.80;;
15285;SDS011;7744;52.172;10.668;2023-08-01T05:54:25;1.25;;;0.90;;
15285;SDS011;7744;52.172;10.668;2023-08-01T05:56:51;0.75;;;0.75;;
15285;SDS011;7744;52.172;10.668;2023-08-01T05:59:17;1.92;;;0.80;;
15285;SDS011;7744;52.172;10.668;2023-08-01T06:01:43;1.73;;;0.73;;
15285;SDS011;7744;52.172;10.668;2023-08-01T06:04:09;0.93;;;0.93;;
15285;SDS011;7744;52.172;10.668;2023-08-01T06:06:34;1.48;;;0.73;;
15285;SDS011;7744;52.172;10.668;2023-08-01T06:09:00;2.80;;;1.10;;
15285;SDS011;7744;52.172;10.668;2023-08-01T06:11:27;1.30;;;1.00;;
15285;SDS011;7744;52.172;10.668;2023-08-01T06:13:54;1.40;;;1.00;;
15285;SDS011;7744;52.172;10.668;2023-08-01T06:16:20;2.22;;;1.48;;
15285;SDS011;7744;52.172;10.668;2023-08-01T06:18:45;3.15;;;1.58;;
15285;SDS011;7744;52.172;10.668;2023-08-01T06:21:11;1.88;;;1.50;;
15285;SDS011;7744;52.172;10.668;2023-08-01T06:23:37;5.20;;;2.28;;
15285;SDS011;7744;52.172;10.668;2023-08-01T06:26:03;2.50;;;1.85;;
15285;SDS011;7744;52.172;10.668;2023-08-01T06:28:28;2.35;;;1.80;;
15285;SDS011;7744;52.172;10.668;2023-08-01T06:30:54;2.67;;;1.45;;
15285;SDS011;7744;52.172;10.668;2023-08-01T06:33:20;1.20;;;1.00;;
15285;SDS011;7744;52.172;10.668;2023-08-01T06:35:46;2.10;;;1.30;;
15285;SDS011;7744;52.172;10.668;2023-08-01T06:38:12;2.47;;;1.33;;
15285;SDS011;7744;52.172;10.668;2023-08-01T06:40:38;2.13;;;1.70;;
15285;SDS011;7744;52.172;10.668;2023-08-01T06:43:03;2.20;;;1.70;;
15285;SDS011;7744;52.172;10.668;2023-08-01T06:45:29;3.92;;;1.73;;
15285;SDS011;7744;52.172;10.668;2023-08-01T06:47:54;2.42;;;1.40;;
15285;SDS011;7744;52.172;10.668;2023-08-01T06:50:20;1.92;;;1.73;;
15285;SDS011;7744;52.172;10.668;2023-08-01T06:52:46;1.90;;;1.40;;
15285;SDS011;7744;52.172;10.668;2023-08-01T06:55:11;2.80;;;1.50;;
15285;SDS011;7744;52.172;10.668;2023-08-01T06:57:37;1.60;;;1.02;;
15285;SDS011;7744;52.172;10.668;2023-08-01T07:00:03;0.95;;;0.82;;
15285;SDS011;7744;52.172;10.668;2023-08-01T07:02:29;1.48;;;1.15;;
15285;SDS011;7744;52.172;10.668;2023-08-01T07:04:54;1.75;;;1.00;;
15285;SDS011;7744;52.172;10.668;2023-08-01T07:07:20;1.10;;;1.00;;
15285;SDS011;7744;52.172;10.668;2023-08-01T07:09:47;1.13;;;1.10;;
15285;SDS011;7744;52.172;10.668;2023-08-01T07:12:13;2.83;;;1.35;;
15285;SDS011;7744;52.172;10.668;2023-08-01T07:14:39;1.23;;;1.13;;
15285;SDS011;7744;52.172;10.668;2023-08-01T07:17:05;2.20;;;1.60;;
15285;SDS011;7744;52.172;10.668;2023-08-01T07:19:30;2.33;;;2.00;;
15285;SDS011;7744;52.172;10.668;2023-08-01T07:21:56;2.60;;;1.77;;
15285;SDS011;7744;52.172;10.668;2023-08-01T07:24:21;1.90;;;1.70;;
15285;SDS011;7744;52.172;10.668;2023-08-01T07:26:47;2.55;;;1.88;;
15285;SDS011;7744;52.172;10.668;2023-08-01T07:29:12;1.70;;;1.60;;
15285;SDS011;7744;52.172;10.668;2023-08-01T07:31:40;2.30;;;1.90;;
15285;SDS011;7744;52.172;10.668;2023-08-01T07:34:07;2.42;;;1.67;;
15285;SDS011;7744;52.172;10.668;2023-08-01T07:36:33;2.22;;;1.92;;
15285;SDS011;7744;52.172;10.668;2023-08-01T07:38:59;2.30;;;1.80;;
15285;SDS011;7744;52.172;10.668;2023-08-01T07:41:24;2.03;;;1.75;;
15285;SDS011;7744;52.172;10.668;2023-08-01T07:43:50;2.00;;;1.80;;
15285;SDS011;7744;52.172;10.668;2023-08-01T07:46:16;2.92;;;1.65;;
15285;SDS011;7744;52.172;10.668;2023-08-01T07:48:41;2.75;;;1.60;;
15285;SDS011;7744;52.172;10.668;2023-08-01T07:51:07;2.00;;;1.50;;
15285;SDS011;7744;52.172;10.668;2023-08-01T07:53:34;1.83;;;1.70;;
15285;SDS011;7744;52.172;10.668;2023-08-01T07:56:00;1.75;;;1.20;;
15285;SDS011;7744;52.172;10.668;2023-08-01T07:58:27;2.67;;;1.80;;
15285;SDS011;7744;52.172;10.668;2023-08-01T08:00:53;2.15;;;1.95;;
15285;SDS011;7744;52.172;10.668;2023-08-01T08:03:19;2.65;;;1.88;;
15285;SDS011;7744;52.172;10.668;2023-08-01T08:05:49;2.42;;;1.92;;
15285;SDS011;7744;52.172;10.668;2023-08-01T08:08:14;2.35;;;2.00;;
15285;SDS011;7744;52.172;10.668;2023-08-01T08:10:40;3.78;;;2.00;;
15285;SDS011;7744;52.172;10.668;2023-08-01T08:13:06;2.15;;;1.85;;
15285;SDS011;7744;52.172;10.668;2023-08-01T08:15:31;2.10;;;1.88;;
15285;SDS011;7744;52.172;10.668;2023-08-01T08:18:00;2.42;;;2.10;;
15285;SDS011;7744;52.172;10.668;2023-08-01T08:20:29;3.55;;;2.00;;
15285;SDS011;7744;52.172;10.668;2023-08-01T08:22:55;3.65;;;2.65;;
15285;SDS011;7744;52.172;10.668;2023-08-01T08:25:20;2.53;;;2.13;;
15285;SDS011;7744;52.172;10.668;2023-08-01T08:27:48;2.60;;;2.30;;
15285;SDS011;7744;52.172;10.668;2023-08-01T08:30:14;4.18;;;2.70;;
15285;SDS011;7744;52.172;10.668;2023-08-01T08:32:41;3.67;;;2.70;;
15285;SDS011;7744;52.172;10.668;2023-08-01T08:35:07;3.33;;;2.42;;
15285;SDS011;7744;52.172;10.668;2023-08-01T08:37:33;2.78;;;2.58;;
15285;SDS011;7744;52.172;10.668;2023-08-01T08:39:58;3.20;;;2.47;;
15285;SDS011;7744;52.172;10.668;2023-08-01T08:42:24;5.30;;;2.80;;
15285;SDS011;7744;52.172;10.668;2023-08-01T08:44:50;4.80;;;2.70;;
15285;SDS011;7744;52.172;10.668;2023-08-01T08:47:22;3.58;;;3.00;;
15285;SDS011;7744;52.172;10.668;2023-08-01T08:49:50;5.75;;;2.63;;
15285;SDS011;7744;52.172;10.668;2023-08-01T08:52:18;6.75;;;2.90;;
15285;SDS011;7744;52.172;10.668;2023-08-01T08:54:44;5.45;;;2.90;;
15285;SDS011;7744;52.172;10.668;2023-08-01T08:57:11;4.50;;;3.00;;
15285;SDS011;7744;52.172;10.668;2023-08-01T08:59:38;4.20;;;3.00;;
15285;SDS011;7744;52.172;10.668;2023-08-01T09:02:04;5.40;;;3.38;;
15285;SDS011;7744;52.172;10.668;2023-08-01T09:04:30;3.95;;;3.17;;
15285;SDS011;7744;52.172;10.668;2023-08-01T09:06:58;4.10;;;3.08;;
15285;SDS011;7744;52.172;10.668;2023-08-01T09:09:32;4.65;;;3.33;;
15285;SDS011;7744;52.172;10.668;2023-08-01T09:11:59;7.97;;;3.53;;
15285;SDS011;7744;52.172;10.668;2023-08-01T09:14:25;4.60;;;3.65;;
15285;SDS011;7744;52.172;10.668;2023-08-01T09:16:50;4.57;;;3.97;;
15285;SDS011;7744;52.172;10.668;2023-08-01T09:19:21;5.63;;;3.80;;
15285;SDS011;7744;52.172;10.668;2023-08-01T09:21:48;8.80;;;4.10;;
15285;SDS011;7744;52.172;10.668;2023-08-01T09:24:16;4.65;;;3.45;;
15285;SDS011;7744;52.172;10.668;2023-08-01T09:26:43;4.95;;;3.22;;
15285;SDS011;7744;52.172;10.668;2023-08-01T09:29:10;6.65;;;3.80;;
15285;SDS011;7744;52.172;10.668;2023-08-01T09:31:36;8.75;;;4.18;;
15285;SDS011;7744;52.172;10.668;2023-08-01T09:34:17;7.40;;;4.00;;
15285;SDS011;7744;52.172;10.668;2023-08-01T09:36:46;5.95;;;4.20;;
15285;SDS011;7744;52.172;10.668;2023-08-01T09:39:19;4.90;;;3.70;;
15285;SDS011;7744;52.172;10.668;2023-08-01T09:41:46;6.53;;;3.63;;
15285;SDS011;7744;52.172;10.668;2023-08-01T09:44:21;4.18;;;3.28;;
15285;SDS011;7744;52.172;10.668;2023-08-01T09:46:56;5.78;;;3.85;;
15285;SDS011;7744;52.172;10.668;2023-08-01T09:49:26;5.50;;;3.50;;
15285;SDS011;7744;52.172;10.668;2023-08-01T09:51:55;8.43;;;4.38;;
15285;SDS011;7744;52.172;10.668;2023-08-01T09:54:21;6.10;;;3.20;;
15285;SDS011;7744;52.172;10.668;2023-08-01T09:56:49;5.55;;;3.40;;
15285;SDS011;7744;52.172;10.668;2023-08-01T09:59:25;3.42;;;2.97;;
15285;SDS011;7744;52.172;10.668;2023-08-01T10:01:52;5.28;;;3.10;;
15285;SDS011;7744;52.172;10.668;2023-08-01T10:04:20;4.70;;;3.05;;
15285;SDS011;7744;52.172;10.668;2023-08-01T10:06:49;4.88;;;3.35;;
15285;SDS011;7744;52.172;10.668;2023-08-01T10:09:22;4.88;;;2.95;;
15285;SDS011;7744;52.172;10.668;2023-08-01T10:11:49;5.15;;;2.63;;
15285;SDS011;7744;52.172;10.668;2023-08-01T10:14:16;3.33;;;2.92;;
15285;SDS011;7744;52.172;10.668;2023-08-01T10:16:44;3.28;;;2.55;;
15285;SDS011;7744;52.172;10.668;2023-08-01T10:19:12;6.15;;;2.90;;
15285;SDS011;7744;52.172;10.668;2023-08-01T10:21:39;3.15;;;2.53;;
15285;SDS011;7744;52.172;10.668;2023-08-01T10:24:06;5.82;;;3.20;;
15285;SDS011;7744;52.172;10.668;2023-08-01T10:26:33;4.72;;;2.55;;
15285;SDS011;7744;52.172;10.668;2023-08-01T10:28:59;5.45;;;2.78;;
15285;SDS011;7744;52.172;10.668;2023-08-01T10:31:27;3.20;;;2.42;;
15285;SDS011;7744;52.172;10.668;2023-08-01T10:34:02;4.57;;;2.40;;
15285;SDS011;7744;52.172;10.668;2023-08-01T10:36:32;5.18;;;2.17;;
15285;SDS011;7744;52.172;10.668;2023-08-01T10:38:59;3.40;;;2.40;;
15285;SDS011;7744;52.172;10.668;2023-08-01T10:44:05;3.55;;;2.20;;
15285;SDS011;7744;52.172;10.668;2023-08-01T10:46:53;3.63;;;1.92;;
15285;SDS011;7744;52.172;10.668;2023-08-01T10:49:18;2.95;;;2.33;;
15285;SDS011;7744;52.172;10.668;2023-08-01T10:51:44;3.15;;;2.25;;
15285;SDS011;7744;52.172;10.668;2023-08-01T10:54:20;3.58;;;2.10;;
15285;SDS011;7744;52.172;10.668;2023-08-01T10:56:48;2.78;;;2.10;;
15285;SDS011;7744;52.172;10.668;2023-08-01T10:59:15;2.47;;;1.77;;
15285;SDS011;7744;52.172;10.668;2023-08-01T11:01:51;3.83;;;2.20;;
15285;SDS011;7744;52.172;10.668;2023-08-01T11:04:18;2.15;;;1.95;;
15285;SDS011;7744;52.172;10.668;2023-08-01T11:06:46;3.38;;;2.00;;
15285;SDS011;7744;52.172;10.668;2023-08-01T11:09:31;3.85;;;2.03;;
15285;SDS011;7744;52.172;10.668;2023-08-01T11:11:57;2.85;;;2.08;;
15285;SDS011;7744;52.172;10.668;2023-08-01T11:14:25;5.13;;;2.40;;
15285;SDS011;7744;52.172;10.668;2023-08-01T11:16:53;3.08;;;2.00;;
15285;SDS011;7744;52.172;10.668;2023-08-01T11:19:21;4.20;;;2.20;;
15285;SDS011;7744;52.172;10.668;2023-08-01T11:21:54;5.03;;;2.25;;
15285;SDS011;7744;52.172;10.668;2023-08-01T11:24:23;2.00;;;1.52;;
15285;SDS011;7744;52.172;10.668;2023-08-01T11:26:50;2.67;;;1.75;;
15285;SDS011;7744;52.172;10.668;2023-08-01T11:29:18;3.35;;;1.42;;
15285;SDS011;7744;52.172;10.668;2023-08-01T11:34:20;1.80;;;1.70;;
15285;SDS011;7744;52.172;10.668;2023-08-01T11:36:46;3.10;;;1.80;;
15285;SDS011;7744;52.172;10.668;2023-08-01T11:39:12;3.15;;;1.60;;
15285;SDS011;7744;52.172;10.668;2023-08-01T11:41:39;3.60;;;1.90;;
15285;SDS011;7744;52.172;10.668;2023-08-01T11:44:05;2.80;;;1.70;;
15285;SDS011;7744;52.172;10.668;2023-08-01T11:46:32;2.83;;;1.70;;
15285;SDS011;7744;52.172;10.668;2023-08-01T11:48:59;3.22;;;1.88;;
15285;SDS011;7744;52.172;10.668;2023-08-01T11:51:26;2.28;;;1.38;;
15285;SDS011;7744;52.172;10.668;2023-08-01T11:54:04;2.30;;;1.63;;
15285;SDS011;7744;52.172;10.668;2023-08-01T11:56:31;2.22;;;1.50;;
15285;SDS011;7744;52.172;10.668;2023-08-01T11:58:57;2.58;;;1.60;;
15285;SDS011;7744;52.172;10.668;2023-08-01T12:01:23;1.95;;;1.30;;
15285;SDS011;7744;52.172;10.668;2023-08-01T12:03:53;1.50;;;1.23;;
15285;SDS011;7744;52.172;10.668;2023-08-01T12:06:23;2.25;;;1.30;;
15285;SDS011;7744;52.172;10.668;2023-08-01T12:08:52;2.25;;;1.40;;
15285;SDS011;7744;52.172;10.668;2023-08-01T12:11:22;6.47;;;1.65;;
15285;SDS011;7744;52.172;10.668;2023-08-01T12:14:02;1.80;;;1.63;;
15285;SDS011;7744;52.172;10.668;2023-08-01T12:16:39;1.30;;;1.10;;
15285;SDS011;7744;52.172;10.668;2023-08-01T12:19:07;2.00;;;1.10;;
15285;SDS011;7744;52.172;10.668;2023-08-01T12:21:33;4.70;;;1.40;;
15285;SDS011;7744;52.172;10.668;2023-08-01T12:24:00;1.83;;;1.20;;
15285;SDS011;7744;52.172;10.668;2023-08-01T12:26:26;1.95;;;1.20;;
15285;SDS011;7744;52.172;10.668;2023-08-01T12:28:52;1.55;;;1.00;;
15285;SDS011;7744;52.172;10.668;2023-08-01T12:31:19;3.60;;;1.45;;
15285;SDS011;7744;52.172;10.668;2023-08-01T12:33:45;3.42;;;1.30;;
15285;SDS011;7744;52.172;10.668;2023-08-01T12:36:12;1.88;;;1.10;;
15285;SDS011;7744;52.172;10.668;2023-08-01T12:38:37;2.47;;;1.10;;
15285;SDS011;7744;52.172;10.668;2023-08-01T12:41:03;2.28;;;1.13;;
15285;SDS011;7744;52.172;10.668;2023-08-01T12:43:29;3.45;;;1.50;;
15285;SDS011;7744;52.172;10.668;2023-08-01T12:45:55;2.78;;;1.20;;
15285;SDS011;7744;52.172;10.668;2023-08-01T12:48:23;2.22;;;1.50;;
15285;SDS011;7744;52.172;10.668;2023-08-01T12:50:52;3.40;;;1.60;;
15285;SDS011;7744;52.172;10.668;2023-08-01T12:53:18;2.58;;;1.52;;
15285;SDS011;7744;52.172;10.668;2023-08-01T12:55:44;2.13;;;1.30;;
15285;SDS011;7744;52.172;10.668;2023-08-01T12:58:11;3.92;;;2.13;;
15285;SDS011;7744;52.172;10.668;2023-08-01T13:00:37;3.53;;;2.25;;
15285;SDS011;7744;52.172;10.668;2023-08-01T13:03:03;2.28;;;1.80;;
15285;SDS011;7744;52.172;10.668;2023-08-01T13:05:29;3.42;;;2.28;;
15285;SDS011;7744;52.172;10.668;2023-08-01T13:07:55;4.95;;;2.30;;
15285;SDS011;7744;52.172;10.668;2023-08-01T13:10:20;4.00;;;2.22;;
15285;SDS011;7744;52.172;10.668;2023-08-01T13:12:46;5.10;;;2.72;;
15285;SDS011;7744;52.172;10.668;2023-08-01T13:15:12;3.28;;;2.28;;
15285;SDS011;7744;52.172;10.668;2023-08-01T13:17:38;2.60;;;2.40;;
15285;SDS011;7744;52.172;10.668;2023-08-01T13:20:04;4.57;;;2.95;;
15285;SDS011;7744;52.172;10.668;2023-08-01T13:22:31;4.25;;;2.83;;
15285;SDS011;7744;52.172;10.668;2023-08-01T13:24:56;4.13;;;3.20;;
15285;SDS011;7744;52.172;10.668;2023-08-01T13:27:22;3.53;;;2.65;;
15285;SDS011;7744;52.172;10.668;2023-08-01T13:29:48;5.47;;;3.15;;
15285;SDS011;7744;52.172;10.668;2023-08-01T13:32:16;4.90;;;2.92;;
15285;SDS011;7744;52.172;10.668;2023-08-01T13:34:42;4.28;;;2.55;;
15285;SDS011;7744;52.172;10.668;2023-08-01T13:37:08;3.75;;;2.45;;
15285;SDS011;7744;52.172;10.668;2023-08-01T13:39:34;4.70;;;3.10;;
15285;SDS011;7744;52.172;10.668;2023-08-01T13:42:00;4.45;;;3.80;;
15285;SDS011;7744;52.172;10.668;2023-08-01T13:44:25;4.55;;;3.60;;
15285;SDS011;7744;52.172;10.668;2023-08-01T13:46:51;5.22;;;3.05;;
15285;SDS011;7744;52.172;10.668;2023-08-01T13:49:18;4.60;;;3.92;;
15285;SDS011;7744;52.172;10.668;2023-08-01T13:51:43;5.32;;;3.70;;
15285;SDS011;7744;52.172;10.668;2023-08-01T13:54:09;4.47;;;3.60;;
15285;SDS011;7744;52.172;10.668;2023-08-01T13:56:35;5.53;;;3.58;;
15285;SDS011;7744;52.172;10.668;2023-08-01T13:59:00;4.50;;;3.72;;
15285;SDS011;7744;52.172;10.668;2023-08-01T14:01:26;3.53;;;3.22;;
15285;SDS011;7744;52.172;10.668;2023-08-01T14:03:52;2.30;;;2.10;;
15285;SDS011;7744;52.172;10.668;2023-08-01T14:06:17;1.83;;;1.65;;
15285;SDS011;7744;52.172;10.668;2023-08-01T14:08:43;1.80;;;1.70;;
15285;SDS011;7744;52.172;10.668;2023-08-01T14:11:09;2.92;;;1.40;;
15285;SDS011;7744;52.172;10.668;2023-08-01T14:13:35;2.33;;;1.20;;
15285;SDS011;7744;52.172;10.668;2023-08-01T14:16:01;2.60;;;1.73;;
15285;SDS011;7744;52.172;10.668;2023-08-01T14:18:28;1.85;;;1.13;;
15285;SDS011;7744;52.172;10.668;2023-08-01T14:20:54;2.50;;;1.50;;
15285;SDS011;7744;52.172;10.668;2023-08-01T14:23:20;2.65;;;1.40;;
15285;SDS011;7744;52.172;10.668;2023-08-01T14:25:46;1.40;;;1.30;;
15285;SDS011;7744;52.172;10.668;2023-08-01T14:28:12;3.42;;;1.70;;
15285;SDS011;7744;52.172;10.668;2023-08-01T14:30:38;2.22;;;1.70;;
15285;SDS011;7744;52.172;10.668;2023-08-01T14:33:07;2.35;;;1.65;;
15285;SDS011;7744;52.172;10.668;2023-08-01T14:35:36;1.95;;;1.55;;
15285;SDS011;7744;52.172;10.668;2023-08-01T14:38:02;3.25;;;1.90;;
15285;SDS011;7744;52.172;10.668;2023-08-01T14:40:29;2.40;;;1.80;;
15285;SDS011;7744;52.172;10.668;2023-08-01T14:42:55;2.35;;;1.67;;
15285;SDS011;7744;52.172;10.668;2023-08-01T14:45:22;2.83;;;1.80;;
15285;SDS011;7744;52.172;10.668;2023-08-01T14:47:47;2.50;;;2.00;;
15285;SDS011;7744;52.172;10.668;2023-08-01T14:50:13;3.03;;;2.10;;